Time;durP1;ratioP1;P1;durP2;ratioP2;P2;SDS_P1;SDS_P2;PMS_P1;PMS_P2;Temp;Humidity;BMP_temperature;BMP_pressure;BME280_temperature;BME280_humidity;BME280_pressure;Samples;Min_cycle;Max_cycle;Signal;HPM_P1;HPM_P2
2023/02/02 00:00:13;;;;;;;78.97;12.00;;;7.90;99.90;;;;;;5000983;28;20704;-84
2023/02/02 00:02:38;;;;;;;79.32;14.30;;;7.80;99.90;;;;;;5000739;28;20186;-84
2023/02/02 00:05:04;;;;;;;78.97;15.50;;;7.90;99.90;;;;;;5001100;28;20166;-84
2023/02/02 00:07:30;;;;;;;81.90;19.37;;;7.90;99.90;;;;;;4999405;28;20537;-85
2023/02/02 00:09:55;;;;;;;83.63;13.90;;;7.90;99.90;;;;;;4999710;28;20229;-85
2023/02/02 00:12:21;;;;;;;83.77;16.10;;;7.90;99.90;;;;;;4999493;28;20190;-84
2023/02/02 00:14:46;;;;;;;86.60;19.33;;;7.90;99.90;;;;;;4999556;28;20666;-84
2023/02/02 00:17:12;;;;;;;82.83;13.20;;;7.90;99.90;;;;;;5000798;28;20158;-83
2023/02/02 00:19:38;;;;;;;77.60;14.00;;;7.90;99.90;;;;;;5000996;28;20167;-84
2023/02/02 00:22:03;;;;;;;79.80;11.27;;;7.90;99.90;;;;;;4999382;28;20186;-85
2023/02/02 00:24:29;;;;;;;86.60;11.83;;;7.90;99.90;;;;;;5000654;28;20162;-84
2023/02/02 00:26:57;;;;;;;77.60;12.70;;;7.80;99.90;;;;;;4998669;28;20558;-84
2023/02/02 00:29:27;;;;;;;83.55;14.07;;;7.80;99.90;;;;;;4999859;28;20519;-84
2023/02/02 00:31:53;;;;;;;81.25;15.85;;;7.80;99.90;;;;;;4999354;28;20183;-84
2023/02/02 00:34:20;;;;;;;84.30;12.73;;;7.80;99.90;;;;;;5000080;28;20174;-84
2023/02/02 00:36:46;;;;;;;82.95;15.10;;;7.70;99.90;;;;;;5000647;28;20245;-85
2023/02/02 00:39:17;;;;;;;75.90;13.95;;;7.80;99.90;;;;;;4999283;28;20162;-85
2023/02/02 00:41:43;;;;;;;79.00;13.10;;;7.80;99.90;;;;;;4998896;28;20197;-85
2023/02/02 00:46:53;;;;;;;80.10;13.68;;;7.80;99.90;;;;;;5000173;28;20382;-85
2023/02/02 00:49:18;;;;;;;81.80;12.47;;;7.80;99.90;;;;;;5000065;28;20534;-85
2023/02/02 00:51:44;;;;;;;83.13;13.40;;;7.90;99.90;;;;;;4999863;28;20264;-85
2023/02/02 00:54:10;;;;;;;79.33;14.00;;;7.90;99.90;;;;;;4998667;28;20406;-84
2023/02/02 00:56:36;;;;;;;74.60;15.93;;;7.90;99.90;;;;;;5000099;28;20186;-86
2023/02/02 00:59:01;;;;;;;82.37;11.10;;;7.90;99.90;;;;;;5000336;28;20163;-85
2023/02/02 01:01:27;;;;;;;79.87;10.70;;;7.90;99.90;;;;;;4998736;28;20182;-85
2023/02/02 01:03:53;;;;;;;82.60;10.88;;;7.90;99.90;;;;;;4998034;28;20650;-84
2023/02/02 01:06:19;;;;;;;82.90;11.40;;;7.90;99.90;;;;;;4998408;28;20178;-85
2023/02/02 01:08:45;;;;;;;78.57;15.38;;;7.90;99.90;;;;;;4999634;28;20171;-85
2023/02/02 01:11:11;;;;;;;85.03;12.67;;;7.90;99.90;;;;;;4999536;28;20553;-84
2023/02/02 01:13:37;;;;;;;81.10;12.00;;;7.90;99.90;;;;;;4999537;28;20416;-84
2023/02/02 01:16:03;;;;;;;87.40;13.20;;;7.90;99.90;;;;;;4999178;28;20213;-84
2023/02/02 01:18:30;;;;;;;80.25;13.35;;;7.90;99.90;;;;;;4999123;28;20186;-84
2023/02/02 01:21:07;;;;;;;78.57;11.38;;;7.90;99.90;;;;;;4983266;28;20222;-84
2023/02/02 01:23:35;;;;;;;75.75;12.75;;;7.90;99.90;;;;;;5000203;28;20196;-84
2023/02/02 01:26:02;;;;;;;78.38;13.05;;;7.90;99.90;;;;;;4999246;28;20171;-84
2023/02/02 01:28:28;;;;;;;73.55;14.07;;;7.90;99.90;;;;;;5000209;28;20162;-85
2023/02/02 01:30:55;;;;;;;77.75;12.68;;;8.00;99.90;;;;;;4999838;28;20179;-85
2023/02/02 01:33:21;;;;;;;74.75;12.20;;;7.90;99.90;;;;;;4999315;28;20166;-85
2023/02/02 01:35:49;;;;;;;88.70;15.03;;;7.90;99.90;;;;;;4999068;28;20202;-85
2023/02/02 01:38:15;;;;;;;87.05;13.45;;;8.00;99.90;;;;;;4999406;28;20414;-84
2023/02/02 01:40:49;;;;;;;85.15;13.95;;;7.90;99.90;;;;;;4999205;28;20191;-85
2023/02/02 01:43:43;;;;;;;83.20;13.05;;;7.90;99.90;;;;;;4998061;28;20220;-85
2023/02/02 01:46:16;;;;;;;96.63;23.80;;;7.90;99.90;;;;;;5000076;28;20678;-87
2023/02/02 01:48:47;;;;;;;78.55;10.98;;;7.90;99.90;;;;;;4999412;28;20159;-85
2023/02/02 01:51:19;;;;;;;80.50;10.52;;;7.80;99.90;;;;;;4998102;28;20559;-85
2023/02/02 01:53:48;;;;;;;78.20;9.80;;;7.80;99.90;;;;;;4998025;28;20170;-85
2023/02/02 01:56:23;;;;;;;72.03;9.60;;;7.80;99.90;;;;;;4999661;28;20194;-85
2023/02/02 01:58:49;;;;;;;104.47;23.83;;;7.80;99.90;;;;;;4999633;28;20669;-86
2023/02/02 02:01:16;;;;;;;85.97;9.93;;;7.70;99.90;;;;;;4999400;28;20218;-85
2023/02/02 02:03:44;;;;;;;79.28;8.77;;;7.70;99.90;;;;;;4999559;28;20169;-85
2023/02/02 02:06:14;;;;;;;84.30;8.20;;;7.70;99.90;;;;;;5000028;28;20181;-86
2023/02/02 02:08:51;;;;;;;80.10;9.13;;;7.70;99.90;;;;;;4999244;28;20197;-85
2023/02/02 02:11:18;;;;;;;74.93;8.20;;;7.70;99.90;;;;;;4998586;28;20190;-85
2023/02/02 02:16:59;;;;;;;87.15;9.18;;;7.70;99.90;;;;;;4999874;28;20229;-85
2023/02/02 02:19:30;;;;;;;77.50;10.25;;;7.80;99.90;;;;;;4998765;28;20689;-85
2023/02/02 02:28:25;;;;;;;75.90;8.82;;;7.80;99.90;;;;;;4978091;28;20197;-85
2023/02/02 02:31:32;;;;;;;84.07;8.95;;;7.80;99.90;;;;;;4998546;28;20205;-85
2023/02/02 02:34:15;;;;;;;83.55;13.50;;;7.80;99.90;;;;;;4998284;28;20213;-85
2023/02/02 02:36:43;;;;;;;87.78;9.20;;;7.80;99.90;;;;;;4999114;28;20551;-85
2023/02/02 02:39:25;;;;;;;76.40;7.05;;;7.70;99.90;;;;;;4998322;28;20193;-85
2023/02/02 02:41:59;;;;;;;88.53;11.75;;;7.70;99.90;;;;;;4998642;28;20178;-86
2023/02/02 02:44:27;;;;;;;89.03;8.52;;;7.70;99.90;;;;;;4999284;28;20211;-85
2023/02/02 02:46:53;;;;;;;77.35;7.85;;;7.70;99.90;;;;;;4999174;28;20245;-85
2023/02/02 02:49:19;;;;;;;88.55;9.77;;;7.80;99.90;;;;;;4999148;28;20178;-85
2023/02/02 02:51:49;;;;;;;74.93;9.70;;;7.80;99.90;;;;;;4999011;28;20190;-85
2023/02/02 02:54:26;;;;;;;79.65;8.68;;;7.80;99.90;;;;;;5001470;28;20205;-85
2023/02/02 02:57:29;;;;;;;81.93;9.98;;;7.80;99.90;;;;;;5002520;28;20186;-86
2023/02/02 03:00:06;;;;;;;78.32;8.27;;;7.80;99.90;;;;;;5001552;28;20158;-85
2023/02/02 03:02:49;;;;;;;79.50;8.68;;;7.80;99.90;;;;;;5002070;28;20178;-85
2023/02/02 03:05:36;;;;;;;80.60;10.18;;;7.80;99.90;;;;;;5001575;28;20225;-85
2023/02/02 03:08:32;;;;;;;81.30;9.45;;;7.80;99.90;;;;;;5002722;28;20154;-85
2023/02/02 03:11:01;;;;;;;80.10;9.27;;;7.80;99.90;;;;;;5001990;28;20205;-85
2023/02/02 03:13:27;;;;;;;82.95;14.80;;;7.80;99.90;;;;;;5002723;28;20170;-86
2023/02/02 03:15:53;;;;;;;73.68;9.48;;;7.80;99.90;;;;;;5002211;28;20209;-85
2023/02/02 03:18:24;;;;;;;81.53;12.00;;;7.80;99.90;;;;;;5002227;28;20165;-85
2023/02/02 03:20:49;;;;;;;87.05;7.78;;;7.80;99.90;;;;;;5001439;28;20429;-85
2023/02/02 03:23:15;;;;;;;73.10;7.70;;;7.80;99.90;;;;;;5001341;28;20166;-85
2023/02/02 03:25:42;;;;;;;76.97;9.13;;;7.80;99.90;;;;;;5001754;28;20171;-85
2023/02/02 03:28:08;;;;;;;74.72;9.73;;;7.80;99.90;;;;;;5001407;28;20190;-85
2023/02/02 03:30:35;;;;;;;85.63;8.52;;;7.80;99.90;;;;;;5002360;28;20539;-86
2023/02/02 03:33:00;;;;;;;79.88;16.42;;;7.80;99.90;;;;;;5000344;28;20166;-86
2023/02/02 03:35:26;;;;;;;86.23;8.67;;;7.70;99.90;;;;;;5000486;28;20197;-85
2023/02/02 03:37:52;;;;;;;76.17;8.53;;;7.70;99.90;;;;;;5000445;28;20508;-87
2023/02/02 03:40:18;;;;;;;82.87;9.80;;;7.70;99.90;;;;;;5000620;28;20174;-85
2023/02/02 03:42:44;;;;;;;78.95;9.85;;;7.70;99.90;;;;;;5002128;28;20643;-86
2023/02/02 03:45:10;;;;;;;86.37;8.87;;;7.70;99.90;;;;;;5002494;28;20174;-85
2023/02/02 03:47:35;;;;;;;73.05;8.82;;;7.70;99.90;;;;;;5001565;28;20518;-85
2023/02/02 03:50:01;;;;;;;79.57;9.80;;;7.70;99.90;;;;;;5001501;28;20222;-85
2023/02/02 03:52:27;;;;;;;82.10;9.60;;;7.80;99.90;;;;;;5001572;28;20246;-85
2023/02/02 03:54:52;;;;;;;75.27;9.63;;;7.70;99.90;;;;;;5001171;28;20201;-85
2023/02/02 03:57:18;;;;;;;77.33;10.90;;;7.70;99.90;;;;;;5001769;28;20166;-85
2023/02/02 03:59:44;;;;;;;78.33;7.83;;;7.70;99.90;;;;;;5001298;28;20245;-85
2023/02/02 04:02:10;;;;;;;79.17;14.00;;;7.70;99.90;;;;;;5001878;28;20420;-85
2023/02/02 04:04:35;;;;;;;74.17;7.93;;;7.70;99.90;;;;;;4999364;28;20191;-85
2023/02/02 04:07:01;;;;;;;82.40;8.50;;;7.70;99.90;;;;;;5000340;28;20414;-85
2023/02/02 04:09:27;;;;;;;80.47;8.47;;;7.70;99.90;;;;;;5001546;28;20166;-85
2023/02/02 04:11:53;;;;;;;79.67;7.77;;;7.70;99.90;;;;;;5000794;28;20183;-85
2023/02/02 04:14:19;;;;;;;77.45;8.50;;;7.70;99.90;;;;;;5001681;28;20526;-85
2023/02/02 04:16:45;;;;;;;75.97;8.40;;;7.80;99.90;;;;;;5000450;28;20194;-85
2023/02/02 04:19:13;;;;;;;86.53;9.73;;;7.80;99.90;;;;;;5001344;28;20408;-85
2023/02/02 04:21:39;;;;;;;81.43;9.20;;;7.70;99.90;;;;;;5001501;28;20198;-86
2023/02/02 04:24:08;;;;;;;75.30;8.02;;;7.70;99.90;;;;;;5001074;28;20177;-85
2023/02/02 04:26:34;;;;;;;77.00;7.30;;;7.70;99.90;;;;;;5000906;28;20220;-86
2023/02/02 04:29:00;;;;;;;80.30;8.37;;;7.70;99.90;;;;;;5000199;28;20159;-85
2023/02/02 04:31:26;;;;;;;74.73;7.27;;;7.70;99.90;;;;;;5000100;28;20221;-85
2023/02/02 04:33:52;;;;;;;75.93;7.72;;;7.70;99.90;;;;;;5000276;28;20589;-86
2023/02/02 04:36:17;;;;;;;88.80;7.63;;;7.70;99.90;;;;;;4999251;28;20198;-85
2023/02/02 04:38:43;;;;;;;76.83;9.83;;;7.70;99.90;;;;;;5000403;28;20163;-85
2023/02/02 04:41:12;;;;;;;82.07;8.33;;;7.60;99.90;;;;;;4999949;28;20208;-85
2023/02/02 04:43:38;;;;;;;83.97;8.63;;;7.60;99.90;;;;;;4999424;28;20177;-85
2023/02/02 04:46:04;;;;;;;76.27;8.10;;;7.60;99.90;;;;;;4999607;28;20198;-85
2023/02/02 04:48:30;;;;;;;82.28;9.90;;;7.70;99.90;;;;;;4998839;28;20175;-85
2023/02/02 04:51:00;;;;;;;85.67;9.73;;;7.70;99.90;;;;;;4999421;28;20241;-85
2023/02/02 04:53:26;;;;;;;80.95;9.15;;;7.70;99.90;;;;;;4999192;28;20487;-86
2023/02/02 04:55:52;;;;;;;78.75;9.98;;;7.70;99.90;;;;;;4999202;28;20195;-86
2023/02/02 04:58:18;;;;;;;79.47;9.90;;;7.70;99.90;;;;;;4999806;28;20511;-86
2023/02/02 05:00:44;;;;;;;77.87;9.60;;;7.60;99.90;;;;;;5000242;28;20181;-86
2023/02/02 05:03:10;;;;;;;85.67;9.53;;;7.60;99.90;;;;;;4999660;28;20406;-86
2023/02/02 05:05:35;;;;;;;77.87;8.40;;;7.60;99.90;;;;;;4999372;28;20423;-86
2023/02/02 05:08:01;;;;;;;87.40;10.03;;;7.60;99.90;;;;;;4999080;28;20171;-87
2023/02/02 05:10:27;;;;;;;82.60;10.20;;;7.60;99.90;;;;;;4999763;28;20179;-87
2023/02/02 05:12:53;;;;;;;81.17;12.13;;;7.60;99.90;;;;;;4999081;28;20414;-87
2023/02/02 05:15:20;;;;;;;84.00;11.05;;;7.60;99.90;;;;;;4997557;28;20198;-87
2023/02/02 05:17:46;;;;;;;80.30;11.05;;;7.60;99.90;;;;;;4997176;28;20203;-87
2023/02/02 05:20:12;;;;;;;83.90;10.60;;;7.60;99.90;;;;;;4997415;28;20182;-87
2023/02/02 05:22:38;;;;;;;75.22;9.57;;;7.60;99.90;;;;;;4997714;28;20197;-87
2023/02/02 05:25:05;;;;;;;81.03;13.27;;;7.60;99.90;;;;;;4996753;28;20253;-87
2023/02/02 05:27:31;;;;;;;82.63;14.18;;;7.60;99.90;;;;;;4997117;28;20480;-87
2023/02/02 05:29:58;;;;;;;82.83;11.33;;;7.60;99.90;;;;;;4999218;28;20174;-87
2023/02/02 05:32:23;;;;;;;73.65;10.15;;;7.60;99.90;;;;;;4997284;28;20466;-87
2023/02/02 05:34:49;;;;;;;83.13;11.60;;;7.60;99.90;;;;;;4997263;28;20182;-87
2023/02/02 05:37:15;;;;;;;121.67;71.73;;;7.60;99.90;;;;;;4998624;28;20170;-88
2023/02/02 05:39:41;;;;;;;79.07;9.90;;;7.60;99.90;;;;;;4998366;28;20406;-87
2023/02/02 05:42:07;;;;;;;87.13;10.90;;;7.60;99.90;;;;;;4997406;28;20200;-87
2023/02/02 05:44:33;;;;;;;82.57;10.80;;;7.60;99.90;;;;;;4997094;28;20177;-88
2023/02/02 05:46:58;;;;;;;77.97;8.90;;;7.50;99.90;;;;;;4997516;28;20174;-87
2023/02/02 05:49:24;;;;;;;84.80;12.70;;;7.50;99.90;;;;;;4997418;28;20273;-87
2023/02/02 05:51:56;;;;;;;84.22;14.73;;;7.50;99.90;;;;;;4997175;28;20446;-87
2023/02/02 05:54:22;;;;;;;78.80;13.75;;;7.50;99.90;;;;;;4997269;28;20184;-87
2023/02/02 05:56:50;;;;;;;76.88;13.93;;;7.50;99.90;;;;;;4998563;28;20597;-87
2023/02/02 05:59:16;;;;;;;75.38;10.48;;;7.50;99.90;;;;;;4998096;28;20163;-87
2023/02/02 06:01:46;;;;;;;78.82;10.00;;;7.50;99.90;;;;;;4999266;28;20213;-87
2023/02/02 06:04:13;;;;;;;81.57;13.23;;;7.50;99.90;;;;;;4999819;28;20198;-87
2023/02/02 06:06:39;;;;;;;77.57;10.32;;;7.50;99.90;;;;;;4998599;28;20166;-87
2023/02/02 06:09:06;;;;;;;85.53;12.88;;;7.50;99.90;;;;;;4999384;28;20205;-87
2023/02/02 06:11:32;;;;;;;76.05;12.05;;;7.40;99.90;;;;;;4998219;28;20194;-87
2023/02/02 06:13:58;;;;;;;82.28;11.32;;;7.50;99.90;;;;;;4999330;28;20178;-87
2023/02/02 06:16:24;;;;;;;87.27;11.23;;;7.50;99.90;;;;;;4999709;28;20190;-87
2023/02/02 06:18:53;;;;;;;80.20;11.07;;;7.50;99.90;;;;;;4998487;28;20190;-87
2023/02/02 06:21:21;;;;;;;84.28;13.07;;;7.50;99.90;;;;;;4999241;28;20183;-86
2023/02/02 06:23:47;;;;;;;77.72;11.48;;;7.50;99.90;;;;;;4999163;28;20189;-88
2023/02/02 06:26:17;;;;;;;88.90;17.93;;;7.50;99.90;;;;;;4999463;28;20225;-87
2023/02/02 06:28:46;;;;;;;84.82;11.63;;;7.50;99.90;;;;;;5002062;28;20429;-85
2023/02/02 06:31:18;;;;;;;76.50;13.25;;;7.50;99.90;;;;;;5002412;28;20670;-86
2023/02/02 06:33:45;;;;;;;98.30;41.28;;;7.50;99.90;;;;;;5001790;28;20178;-86
2023/02/02 06:36:11;;;;;;;87.53;14.70;;;7.50;99.90;;;;;;5003986;28;20197;-86
2023/02/02 06:38:39;;;;;;;81.07;12.87;;;7.50;99.90;;;;;;5003533;28;20162;-86
2023/02/02 06:41:06;;;;;;;81.15;27.73;;;7.50;99.90;;;;;;5003005;28;20182;-86
2023/02/02 06:43:35;;;;;;;88.97;13.10;;;7.50;99.90;;;;;;5002791;28;20634;-85
2023/02/02 06:46:04;;;;;;;80.15;13.93;;;7.50;99.90;;;;;;5001930;28;20198;-85
2023/02/02 06:48:29;;;;;;;75.00;11.98;;;7.50;99.90;;;;;;5002758;28;20166;-85
2023/02/02 06:51:01;;;;;;;82.37;15.30;;;7.50;99.90;;;;;;5002559;28;20189;-85
2023/02/02 06:53:27;;;;;;;81.15;12.77;;;7.50;99.90;;;;;;5001976;28;20181;-85
2023/02/02 06:56:04;;;;;;;89.43;12.23;;;7.50;99.90;;;;;;5002864;28;20190;-85
2023/02/02 06:58:31;;;;;;;80.45;11.43;;;7.50;99.90;;;;;;4985090;28;20673;-85
2023/02/02 07:01:03;;;;;;;83.63;13.30;;;7.50;99.90;;;;;;5001754;28;20238;-84
2023/02/02 07:03:28;;;;;;;78.25;16.20;;;7.50;99.90;;;;;;5002575;28;20166;-86
2023/02/02 07:05:54;;;;;;;77.40;12.27;;;7.50;99.90;;;;;;5001259;28;20177;-85
2023/02/02 07:08:20;;;;;;;83.73;11.37;;;7.50;99.90;;;;;;5002582;28;20913;-85
2023/02/02 07:10:46;;;;;;;90.37;18.80;;;7.50;99.90;;;;;;5002293;28;20261;-85
2023/02/02 07:13:12;;;;;;;81.37;13.00;;;7.50;99.90;;;;;;5000985;28;20406;-85
2023/02/02 07:15:39;;;;;;;79.10;12.60;;;7.60;99.90;;;;;;5002110;28;20223;-85
2023/02/02 07:18:04;;;;;;;84.03;11.57;;;7.60;99.90;;;;;;5000439;28;20170;-85
2023/02/02 07:20:30;;;;;;;81.23;12.17;;;7.60;99.90;;;;;;5001131;28;20673;-84
2023/02/02 07:22:56;;;;;;;76.20;11.13;;;7.50;99.90;;;;;;5001879;28;20405;-85
2023/02/02 07:25:31;;;;;;;77.07;15.40;;;7.60;99.90;;;;;;5002845;28;20171;-84
2023/02/02 07:27:57;;;;;;;73.90;11.30;;;7.60;99.90;;;;;;5001019;28;20609;-85
2023/02/02 07:30:24;;;;;;;81.07;11.60;;;7.60;99.90;;;;;;5002804;28;20245;-84
2023/02/02 07:32:50;;;;;;;84.22;9.80;;;7.60;99.90;;;;;;5001227;28;20269;-85
2023/02/02 07:35:16;;;;;;;71.90;8.80;;;7.60;99.90;;;;;;5001543;28;20590;-85
2023/02/02 07:37:42;;;;;;;78.53;9.15;;;7.60;99.90;;;;;;5002507;28;20410;-85
2023/02/02 07:40:08;;;;;;;81.87;9.20;;;7.70;99.90;;;;;;5002068;28;20221;-85
2023/02/02 07:42:35;;;;;;;78.65;10.07;;;7.70;99.90;;;;;;5001692;28;20183;-85
2023/02/02 07:45:01;;;;;;;76.38;11.90;;;7.70;99.90;;;;;;5002112;28;20190;-84
2023/02/02 07:47:27;;;;;;;75.80;8.63;;;7.70;99.90;;;;;;5002183;28;20170;-85
2023/02/02 07:49:52;;;;;;;81.97;8.40;;;7.70;99.90;;;;;;5002249;28;20521;-85
2023/02/02 07:52:18;;;;;;;77.10;9.63;;;7.70;99.90;;;;;;5001254;28;20194;-85
2023/02/02 07:54:46;;;;;;;79.30;9.53;;;7.70;99.90;;;;;;5001655;28;20169;-85
2023/02/02 07:57:12;;;;;;;76.93;8.40;;;7.60;99.90;;;;;;5001899;28;20175;-85
2023/02/02 07:59:38;;;;;;;76.33;8.47;;;7.70;99.90;;;;;;5000501;28;20194;-85
2023/02/02 08:02:04;;;;;;;86.00;13.53;;;7.70;99.90;;;;;;5002121;28;20255;-85
2023/02/02 08:04:32;;;;;;;76.30;9.10;;;7.70;99.90;;;;;;5000863;28;20173;-85
2023/02/02 08:06:57;;;;;;;78.68;12.55;;;7.70;99.90;;;;;;5001799;28;20171;-85
2023/02/02 08:09:23;;;;;;;77.00;8.47;;;7.70;99.90;;;;;;5000533;28;20171;-85
2023/02/02 08:11:49;;;;;;;75.30;8.80;;;7.70;99.90;;;;;;4999685;28;20601;-85
2023/02/02 08:14:14;;;;;;;75.03;10.07;;;7.70;99.90;;;;;;5001325;28;20194;-85
2023/02/02 08:16:40;;;;;;;77.03;9.40;;;7.70;99.90;;;;;;5001992;28;20194;-85
2023/02/02 08:19:06;;;;;;;81.93;11.50;;;7.70;99.90;;;;;;5001190;28;20166;-85
2023/02/02 08:21:33;;;;;;;72.87;8.63;;;7.70;99.90;;;;;;5001244;28;20183;-86
2023/02/02 08:23:59;;;;;;;73.75;9.90;;;7.70;99.90;;;;;;5000380;28;20198;-85
2023/02/02 08:26:27;;;;;;;82.33;11.50;;;7.70;99.90;;;;;;5000337;28;20186;-85
2023/02/02 08:29:03;;;;;;;76.38;10.50;;;7.70;99.90;;;;;;4999646;28;20174;-85
2023/02/02 08:31:32;;;;;;;78.80;11.40;;;7.80;99.90;;;;;;5001387;28;20209;-85
2023/02/02 08:33:57;;;;;;;82.38;11.18;;;7.80;99.90;;;;;;5000564;28;20716;-84
2023/02/02 08:36:25;;;;;;;84.07;11.23;;;7.80;99.90;;;;;;5000908;28;20194;-85
2023/02/02 08:38:54;;;;;;;80.90;10.95;;;7.80;99.90;;;;;;5001639;28;20167;-85
2023/02/02 08:41:22;;;;;;;83.43;10.07;;;7.80;99.90;;;;;;5000256;28;20252;-85
2023/02/02 08:43:48;;;;;;;82.45;11.38;;;7.80;99.90;;;;;;5001074;28;20221;-85
2023/02/02 08:46:15;;;;;;;76.35;10.57;;;7.90;99.90;;;;;;5000967;28;20171;-86
2023/02/02 08:48:41;;;;;;;86.15;25.67;;;7.80;99.90;;;;;;5000136;28;20217;-85
2023/02/02 08:51:10;;;;;;;94.10;11.07;;;7.80;99.90;;;;;;4998879;28;20609;-85
2023/02/02 08:53:35;;;;;;;77.00;11.43;;;7.90;99.90;;;;;;4999648;28;20414;-85
2023/02/02 08:56:09;;;;;;;78.27;10.73;;;7.90;99.90;;;;;;5000262;28;20191;-85
2023/02/02 08:58:35;;;;;;;79.43;11.52;;;7.90;99.90;;;;;;4999429;28;20172;-85
2023/02/02 09:01:10;;;;;;;90.50;21.00;;;7.90;99.90;;;;;;5000416;28;20182;-85
2023/02/02 09:03:41;;;;;;;77.72;10.38;;;7.90;99.90;;;;;;5000547;28;20647;-85
2023/02/02 09:06:09;;;;;;;81.22;11.73;;;7.90;99.90;;;;;;5000543;28;20670;-85
2023/02/02 09:08:35;;;;;;;93.78;31.60;;;7.90;99.90;;;;;;4999661;28;20262;-86
2023/02/02 09:11:06;;;;;;;76.55;10.70;;;7.90;99.90;;;;;;4999264;28;20195;-85
2023/02/02 09:13:32;;;;;;;83.07;10.68;;;7.90;99.90;;;;;;5000065;28;20526;-85
2023/02/02 09:16:03;;;;;;;87.03;12.20;;;7.90;99.90;;;;;;5000434;28;20198;-85
2023/02/02 09:18:29;;;;;;;71.38;9.80;;;7.90;99.90;;;;;;4999782;28;20173;-85
2023/02/02 09:20:57;;;;;;;79.57;13.40;;;7.90;99.90;;;;;;4998861;28;20182;-84
2023/02/02 09:23:24;;;;;;;88.10;11.80;;;8.00;99.90;;;;;;4998750;28;20221;-85
2023/02/02 09:25:50;;;;;;;79.72;12.85;;;8.00;99.90;;;;;;4999968;28;20178;-85
2023/02/02 09:35:31;;;;;;;79.88;11.50;;;8.00;99.90;;;;;;4856256;29;20175;-87
2023/02/02 09:41:24;;;;;;;83.30;10.30;;;8.00;99.90;;;;;;4937053;28;20196;-87
2023/02/02 09:45:01;;;;;;;82.38;10.90;;;8.10;99.90;;;;;;4978636;28;20242;-87
2023/02/02 09:48:05;;;;;;;76.93;10.68;;;8.20;99.90;;;;;;4913865;29;20643;-87
2023/02/02 09:55:00;;;;;;;76.35;10.10;;;8.30;99.90;;;;;;4893100;29;20254;-86
2023/02/02 09:58:28;;;;;;;;;;;;;;;;;;;;;
2023/02/02 10:04:49;;;;;;;70.68;8.38;;;8.40;99.90;;;;;;4919673;29;20306;-87
2023/02/02 10:08:02;;;;;;;79.00;10.85;;;8.40;99.90;;;;;;4877152;29;20238;-87
2023/02/02 10:18:41;;;;;;;73.88;9.57;;;8.30;99.90;;;;;;4911415;29;20185;-87
2023/02/02 10:21:58;;;;;;;70.70;9.25;;;8.30;99.90;;;;;;4911438;29;20193;-86
2023/02/02 10:24:59;;;;;;;;;;;;;;;;;;;;;
2023/02/02 10:28:17;;;;;;;83.65;12.18;;;8.30;99.90;;;;;;4945556;29;20203;-87
2023/02/02 10:30:59;;;;;;;77.65;11.32;;;8.30;99.90;;;;;;4912727;29;20207;-88
2023/02/02 10:38:15;;;;;;;;;;;;;;;;;;;;;
2023/02/02 10:41:40;;;;;;;;;;;;;;;;;;;;;
2023/02/02 10:47:45;;;;;;;84.18;13.88;;;8.30;99.90;;;;;;4835945;29;20180;-88
2023/02/02 10:54:11;;;;;;;78.78;13.73;;;8.40;99.90;;;;;;4837339;29;20182;-87
2023/02/02 11:11:40;;;;;;;76.25;11.48;;;8.80;99.90;;;;;;5094943;23;20226;-86
2023/02/02 11:22:01;;;;;;;76.30;9.95;;;8.90;99.90;;;;;;4933021;29;20204;-86
2023/02/02 11:28:29;;;;;;;;;;;;;;;;;;;;;
2023/02/02 11:31:46;;;;;;;86.55;11.70;;;8.90;99.90;;;;;;4787024;29;20823;-85
2023/02/02 11:34:47;;;;;;;75.15;13.18;;;8.90;99.90;;;;;;4827863;29;20188;-86
2023/02/02 11:38:06;;;;;;;79.03;11.50;;;8.90;99.90;;;;;;4857160;29;20215;-86
2023/02/02 11:43:55;;;;;;;75.88;11.65;;;8.90;99.90;;;;;;4852497;29;20594;-86
2023/02/02 11:46:56;;;;;;;74.70;13.98;;;8.90;99.90;;;;;;4896655;29;20213;-88
2023/02/02 11:56:22;;;;;;;78.75;12.02;;;8.90;99.90;;;;;;4997406;28;20201;-86
2023/02/02 11:59:19;;;;;;;72.32;11.48;;;8.90;99.90;;;;;;4991208;28;20193;-86
2023/02/02 12:02:32;;;;;;;78.25;12.13;;;9.00;99.90;;;;;;4992861;28;20213;-85
2023/02/02 12:05:42;;;;;;;80.00;12.07;;;9.00;99.90;;;;;;4972556;28;20181;-86
2023/02/02 12:08:38;;;;;;;;;;;;;;;;;;;;;
2023/02/02 12:14:10;;;;;;;81.90;11.55;;;9.20;99.90;;;;;;4989461;28;20211;-86
2023/02/02 12:17:18;;;;;;;79.30;11.77;;;9.30;99.90;;;;;;4990935;28;20179;-86
2023/02/02 12:20:20;;;;;;;76.60;11.35;;;9.40;99.90;;;;;;4990262;28;20235;-87
2023/02/02 12:22:58;;;;;;;80.47;10.68;;;9.40;99.90;;;;;;4970304;29;20167;-86
2023/02/02 12:29:43;;;;;;;78.40;9.40;;;9.60;99.90;;;;;;4917265;29;20173;-86
2023/02/02 12:33:04;;;;;;;78.20;11.43;;;9.70;99.90;;;;;;4931622;29;20196;-87
2023/02/02 12:36:11;;;;;;;78.53;9.57;;;9.70;99.90;;;;;;4931084;29;20200;-87
2023/02/02 12:39:34;;;;;;;75.15;10.95;;;9.80;99.90;;;;;;4912036;29;20188;-86
2023/02/02 12:42:34;;;;;;;77.47;12.20;;;9.90;99.90;;;;;;4913920;28;20209;-84
2023/02/02 12:45:44;;;;;;;79.18;14.75;;;9.90;99.90;;;;;;4939058;28;20259;-87
2023/02/02 12:48:43;;;;;;;76.80;9.68;;;9.90;99.90;;;;;;4971185;28;20199;-86
2023/02/02 12:51:53;;;;;;;75.20;8.43;;;9.80;99.90;;;;;;4970927;28;20191;-86
2023/02/02 12:55:00;;;;;;;73.35;10.00;;;9.80;99.90;;;;;;4954507;29;20219;-88
2023/02/02 12:57:58;;;;;;;81.05;8.90;;;9.80;99.90;;;;;;4893983;29;20182;-87
2023/02/02 13:00:48;;;;;;;70.97;8.30;;;9.70;99.90;;;;;;4953629;28;20267;-86
2023/02/02 13:03:51;;;;;;;74.82;8.35;;;9.60;99.90;;;;;;4970310;28;20179;-87
2023/02/02 13:06:49;;;;;;;75.57;9.35;;;9.60;99.90;;;;;;4970244;28;20175;-86
2023/02/02 13:10:01;;;;;;;83.55;8.85;;;9.60;99.90;;;;;;4970625;29;20258;-87
2023/02/02 13:12:55;;;;;;;75.15;7.57;;;9.60;99.90;;;;;;4969630;28;20212;-86
2023/02/02 13:15:34;;;;;;;85.28;8.52;;;9.60;99.90;;;;;;4954043;29;20203;-86
2023/02/02 13:18:25;;;;;;;75.93;8.70;;;9.80;99.90;;;;;;4971043;29;20148;-86
2023/02/02 13:21:02;;;;;;;74.82;7.57;;;9.80;99.90;;;;;;4954209;29;20203;-86
2023/02/02 13:24:03;;;;;;;69.15;7.70;;;10.00;99.90;;;;;;4953768;29;20172;-86
2023/02/02 13:27:16;;;;;;;78.97;8.80;;;10.10;99.90;;;;;;4953669;29;20243;-87
2023/02/02 13:29:56;;;;;;;73.40;8.10;;;10.10;99.90;;;;;;4964649;29;20203;-87
2023/02/02 13:32:33;;;;;;;77.15;7.20;;;10.00;99.90;;;;;;4968545;29;20203;-86
2023/02/02 13:35:45;;;;;;;;;;;;;;;;;;;;;
2023/02/02 13:38:37;;;;;;;72.07;7.63;;;9.90;99.90;;;;;;4970892;29;20202;-85
2023/02/02 13:41:31;;;;;;;71.82;7.80;;;9.90;99.90;;;;;;4970649;28;20576;-86
2023/02/02 13:44:10;;;;;;;73.78;7.60;;;9.90;99.90;;;;;;4969419;28;20187;-86
2023/02/02 13:47:37;;;;;;;84.88;8.45;;;9.80;99.90;;;;;;4954113;29;20163;-87
2023/02/02 13:50:15;;;;;;;83.57;9.38;;;9.70;99.90;;;;;;4888091;28;20180;-85
2023/02/02 13:53:18;;;;;;;75.38;7.28;;;9.70;99.90;;;;;;4938255;29;20179;-85
2023/02/02 13:56:46;;;;;;;78.30;8.25;;;9.70;99.90;;;;;;4969419;29;20202;-85
2023/02/02 13:59:52;;;;;;;70.97;7.38;;;9.70;99.90;;;;;;4867017;29;20225;-87
2023/02/02 14:02:47;;;;;;;75.60;7.10;;;9.70;99.90;;;;;;5032357;23;20212;-85
2023/02/02 14:05:42;;;;;;;74.13;8.77;;;9.60;99.90;;;;;;5000067;28;20174;-85
2023/02/02 14:08:13;;;;;;;68.65;7.20;;;9.60;99.90;;;;;;5026782;28;20185;-85
2023/02/02 14:10:51;;;;;;;72.07;7.32;;;9.60;99.90;;;;;;5007403;28;20254;-85
2023/02/02 14:16:30;;;;;;;75.78;7.30;;;9.60;99.90;;;;;;4975177;28;20232;-85
2023/02/02 14:19:01;;;;;;;76.85;8.93;;;9.60;99.90;;;;;;5008257;28;20163;-85
2023/02/02 14:21:33;;;;;;;68.00;7.55;;;9.70;99.90;;;;;;4990900;28;20187;-86
2023/02/02 14:24:21;;;;;;;70.70;8.40;;;9.70;99.90;;;;;;4991443;28;20217;-86
2023/02/02 14:27:09;;;;;;;70.32;7.20;;;9.70;99.90;;;;;;4991054;28;20496;-85
2023/02/02 14:30:16;;;;;;;72.97;8.13;;;9.70;99.90;;;;;;4991880;28;20174;-86
2023/02/02 14:33:04;;;;;;;71.78;6.95;;;9.70;99.90;;;;;;4991389;28;20190;-85
2023/02/02 14:35:35;;;;;;;73.63;7.50;;;9.80;99.90;;;;;;4989396;28;20202;-85
2023/02/02 14:38:54;;;;;;;70.88;7.05;;;9.80;99.90;;;;;;4992256;28;20243;-86
2023/02/02 14:44:36;;;;;;;67.03;6.35;;;9.80;99.90;;;;;;5008915;28;20158;-85
2023/02/02 14:47:02;;;;;;;75.63;8.00;;;9.80;99.90;;;;;;4991058;28;20602;-85
2023/02/02 14:49:34;;;;;;;67.25;6.97;;;9.80;99.90;;;;;;4992593;28;20178;-86
2023/02/02 14:52:06;;;;;;;69.07;6.70;;;9.80;99.90;;;;;;4991849;28;20198;-85
2023/02/02 14:54:42;;;;;;;73.05;6.13;;;9.80;99.90;;;;;;5012316;28;20146;-85
2023/02/02 14:57:27;;;;;;;69.38;6.05;;;9.80;99.90;;;;;;4994899;28;20244;-85
2023/02/02 15:00:17;;;;;;;67.93;6.72;;;9.80;99.90;;;;;;5012419;28;20182;-85
2023/02/02 15:02:53;;;;;;;74.82;5.93;;;9.80;99.90;;;;;;4994256;28;20206;-86
2023/02/02 15:05:34;;;;;;;70.65;6.18;;;9.80;99.90;;;;;;4994676;28;20166;-86
2023/02/02 15:08:33;;;;;;;;;;;;;;;;;;;;;
2023/02/02 15:14:05;;;;;;;70.25;6.28;;;9.80;99.90;;;;;;5012420;28;20161;-86